Time;durP1;ratioP1;P1;durP2;ratioP2;P2;SDS_P1;SDS_P2;PMS_P1;PMS_P2;Temp;Humidity;BMP_temperature;BMP_pressure;BME280_temperature;BME280_humidity;BME280_pressure;Samples;Min_cycle;Max_cycle;Signal;HPM_P1;HPM_P2
2021/07/10 00:01:13;;;;;;;72.07;68.82;;;;;;;18.67;66.41;93733.16;5072111;28;20032;-54
2021/07/10 00:03:39;;;;;;;69.32;66.18;;;;;;;18.69;66.28;93722.84;5073080;28;20020;-54
2021/07/10 00:06:05;;;;;;;67.72;64.22;;;;;;;18.62;65.73;93725.84;5073071;28;20027;-54
2021/07/10 00:08:31;;;;;;;66.38;63.22;;;;;;;18.62;65.29;93725.84;5073829;28;20417;-56
2021/07/10 00:10:56;;;;;;;66.90;62.65;;;;;;;18.50;65.63;93730.59;5073144;28;20025;-56
2021/07/10 00:13:22;;;;;;;65.47;61.88;;;;;;;18.50;65.96;93736.19;5073056;28;20418;-54
2021/07/10 00:15:47;;;;;;;64.78;61.78;;;;;;;18.53;65.59;93746.19;5073246;28;20062;-55
2021/07/10 00:18:13;;;;;;;64.30;61.15;;;;;;;18.55;65.62;93749.13;5075506;28;20028;-50
2021/07/10 00:20:38;;;;;;;61.88;58.72;;;;;;;18.49;65.61;93745.91;5072166;28;20048;-55
2021/07/10 00:23:04;;;;;;;63.30;60.25;;;;;;;18.48;66.53;93739.59;5072820;28;20032;-52
2021/07/10 00:25:29;;;;;;;59.95;57.00;;;;;;;18.38;66.03;93726.94;5072061;28;20056;-54
2021/07/10 00:27:55;;;;;;;59.28;56.42;;;;;;;18.36;66.50;93724.75;5072094;28;20082;-54
2021/07/10 00:30:21;;;;;;;55.83;53.22;;;;;;;18.36;66.00;93724.75;5071708;28;20023;-54
2021/07/10 00:32:47;;;;;;;57.47;54.78;;;;;;;18.41;66.25;93726.47;5071327;28;20740;-54
2021/07/10 00:35:13;;;;;;;57.00;54.28;;;;;;;18.39;65.93;93731.94;5071117;28;20785;-54
2021/07/10 00:37:39;;;;;;;56.30;53.30;;;;;;;18.49;66.26;93729.88;5071596;28;20085;-53
2021/07/10 00:40:06;;;;;;;52.60;49.70;;;;;;;18.41;65.82;93726.47;5071305;28;20059;-50
2021/07/10 00:42:33;;;;;;;50.25;47.53;;;;;;;18.36;65.53;93730.34;5071394;28;20028;-50
2021/07/10 00:44:58;;;;;;;56.15;53.40;;;;;;;18.24;65.96;93726.69;5071499;28;20030;-53
2021/07/10 00:47:24;;;;;;;55.75;52.95;;;;;;;18.27;65.79;93725.50;5071046;28;20024;-52
2021/07/10 00:49:49;;;;;;;59.38;56.33;;;;;;;18.17;66.25;93739.50;5071320;28;20394;-55
2021/07/10 00:52:15;;;;;;;55.97;53.25;;;;;;;18.13;66.06;93725.22;5071211;28;20024;-54
2021/07/10 00:54:40;;;;;;;56.17;53.33;;;;;;;18.11;66.38;93713.91;5065294;28;20027;-55
2021/07/10 00:57:08;;;;;;;54.20;51.63;;;;;;;18.12;66.72;93737.75;5070575;28;20045;-55
2021/07/10 00:59:33;;;;;;;51.78;49.28;;;;;;;17.96;67.24;93739.38;5071435;28;20641;-54
2021/07/10 01:01:59;;;;;;;51.53;48.72;;;;;;;18.03;66.59;93735.72;5070565;28;20052;-55
2021/07/10 01:04:25;;;;;;;52.38;49.97;;;;;;;17.96;66.14;93735.84;5071259;28;20028;-55
2021/07/10 01:06:50;;;;;;;52.00;49.42;;;;;;;17.97;65.61;93738.06;5080481;28;20031;-55
2021/07/10 01:09:17;;;;;;;51.35;48.97;;;;;;;17.81;66.15;93725.00;5079142;28;20008;-53
2021/07/10 01:11:43;;;;;;;50.67;48.28;;;;;;;17.93;66.31;93734.97;5081085;28;20024;-53
2021/07/10 01:14:08;;;;;;;51.25;48.65;;;;;;;17.97;66.50;93742.94;5079326;28;20038;-53
2021/07/10 01:16:34;;;;;;;50.40;47.70;;;;;;;17.89;66.49;93742.31;5079664;28;20028;-51
2021/07/10 01:18:59;;;;;;;47.08;44.58;;;;;;;17.93;67.00;93743.34;5072229;28;20090;-49
2021/07/10 01:21:25;;;;;;;40.58;38.22;;;;;;;17.87;67.33;93722.63;5070896;28;20413;-49
2021/07/10 01:23:51;;;;;;;41.22;39.10;;;;;;;17.83;67.63;93717.50;5071210;28;20405;-55
2021/07/10 01:26:17;;;;;;;41.08;38.60;;;;;;;17.81;67.99;93717.34;5071216;28;20437;-56
2021/07/10 01:28:43;;;;;;;43.80;41.58;;;;;;;17.71;67.75;93713.13;5071309;28;20043;-47
2021/07/10 01:31:09;;;;;;;44.13;41.95;;;;;;;17.82;67.84;93702.06;5070636;28;20025;-53
2021/07/10 01:33:35;;;;;;;45.35;43.20;;;;;;;17.70;67.28;93670.47;5070579;28;20040;-58
2021/07/10 01:36:00;;;;;;;45.38;43.08;;;;;;;17.77;67.54;93683.56;5070482;28;20116;-58
2021/07/10 01:38:25;;;;;;;47.10;44.50;;;;;;;17.84;67.03;93679.88;5071727;28;20043;-58
2021/07/10 01:40:51;;;;;;;42.28;40.13;;;;;;;17.81;67.08;93681.06;5071155;28;20093;-58
2021/07/10 01:43:17;;;;;;;39.05;37.05;;;;;;;17.73;67.53;93665.78;5071689;28;20141;-58
2021/07/10 01:45:42;;;;;;;39.05;37.10;;;;;;;17.61;68.13;93651.69;5071199;28;20111;-56
2021/07/10 01:48:13;;;;;;;36.95;34.53;;;;;;;17.66;68.15;93661.09;5071457;28;20028;-57
2021/07/10 01:50:40;;;;;;;38.70;36.60;;;;;;;17.54;68.31;93663.75;5071533;28;20040;-57
2021/07/10 01:53:05;;;;;;;40.40;38.45;;;;;;;17.62;68.54;93663.59;5071505;28;20024;-57
2021/07/10 01:55:31;;;;;;;40.13;37.92;;;;;;;17.59;67.91;93654.31;5071212;28;20108;-57
2021/07/10 01:57:57;;;;;;;41.30;38.80;;;;;;;17.61;67.57;93651.69;5071047;28;20029;-58
2021/07/10 02:00:28;;;;;;;41.95;39.88;;;;;;;17.52;67.40;93640.53;5070958;28;20047;-58
2021/07/10 02:02:55;;;;;;;38.40;36.47;;;;;;;17.49;67.80;93639.63;5070927;28;20405;-58
2021/07/10 02:05:24;;;;;;;39.88;37.88;;;;;;;17.48;67.87;93649.31;5070732;28;20029;-59
2021/07/10 02:07:50;;;;;;;40.33;38.08;;;;;;;17.47;67.58;93647.13;5071167;28;20021;-57
2021/07/10 02:10:17;;;;;;;38.65;36.58;;;;;;;17.47;67.66;93639.50;5070890;28;20071;-57
2021/07/10 02:12:45;;;;;;;37.67;35.63;;;;;;;17.42;67.88;93646.84;5070546;28;20032;-57
2021/07/10 02:15:12;;;;;;;36.88;34.88;;;;;;;17.40;67.57;93651.53;5070692;28;20044;-57
2021/07/10 02:17:37;;;;;;;35.40;33.38;;;;;;;17.28;67.79;93654.19;5071022;28;20035;-56
2021/07/10 02:20:06;;;;;;;38.53;36.47;;;;;;;17.25;67.62;93654.63;5069434;28;20456;-56
2021/07/10 02:22:32;;;;;;;36.88;35.05;;;;;;;17.20;68.45;93650.81;5070824;28;20029;-56
2021/07/10 02:24:57;;;;;;;37.10;34.35;;;;;;;17.04;69.41;93657.28;5070539;28;20046;-56
2021/07/10 02:27:23;;;;;;;34.55;32.63;;;;;;;17.13;68.91;93662.84;5070727;28;20025;-56
2021/07/10 02:29:48;;;;;;;32.78;30.75;;;;;;;17.02;69.76;93662.72;5070469;28;20568;-58
2021/07/10 02:32:14;;;;;;;32.92;31.20;;;;;;;17.06;69.44;93660.94;5070306;28;20088;-57
2021/07/10 02:34:39;;;;;;;34.40;32.30;;;;;;;17.08;68.86;93663.88;5070188;28;20029;-57
2021/07/10 02:37:05;;;;;;;35.00;32.80;;;;;;;16.95;69.57;93669.16;5070132;28;20035;-52
2021/07/10 02:39:30;;;;;;;36.30;33.83;;;;;;;17.06;69.25;93666.53;5070110;28;20040;-53
2021/07/10 02:41:55;;;;;;;32.03;30.33;;;;;;;17.11;68.55;93667.53;5070085;28;20027;-55
2021/07/10 02:44:21;;;;;;;31.92;30.25;;;;;;;17.08;69.11;93660.34;5068877;28;20581;-53
2021/07/10 02:46:46;;;;;;;29.80;28.00;;;;;;;17.07;69.31;93670.78;5069981;28;20032;-53
2021/07/10 02:49:12;;;;;;;31.08;29.38;;;;;;;17.09;68.69;93670.19;5070333;28;20054;-53
2021/07/10 02:51:38;;;;;;;29.83;27.92;;;;;;;16.93;69.21;93663.44;5070272;28;20031;-53
2021/07/10 02:54:05;;;;;;;28.88;26.95;;;;;;;16.91;69.39;93666.81;5070375;28;20078;-54
2021/07/10 02:56:30;;;;;;;31.88;30.08;;;;;;;16.96;69.37;93668.56;5070372;28;20020;-54
2021/07/10 02:58:56;;;;;;;32.22;30.38;;;;;;;16.98;68.35;93670.78;5070433;28;20086;-50
2021/07/10 03:01:21;;;;;;;33.13;31.35;;;;;;;16.94;68.01;93673.25;5069772;28;20056;-52
2021/07/10 03:03:47;;;;;;;31.27;29.67;;;;;;;16.84;67.75;93669.72;5070221;28;20024;-54
2021/07/10 03:06:12;;;;;;;34.60;32.50;;;;;;;16.73;68.63;93678.66;5070010;28;20496;-49
2021/07/10 03:08:39;;;;;;;32.63;30.73;;;;;;;16.75;69.22;93676.75;5069706;28;20051;-49
2021/07/10 03:11:06;;;;;;;32.55;30.85;;;;;;;16.79;68.82;93679.09;5069724;28;20017;-49
2021/07/10 03:13:32;;;;;;;32.25;30.05;;;;;;;16.82;68.55;93684.25;5070035;28;20099;-49
2021/07/10 03:15:57;;;;;;;31.67;29.77;;;;;;;16.78;69.20;93672.81;5069644;28;20111;-50
2021/07/10 03:18:23;;;;;;;33.45;31.25;;;;;;;16.82;68.93;93675.16;5069857;28;20020;-50
2021/07/10 03:20:48;;;;;;;32.10;30.42;;;;;;;16.75;68.63;93687.16;5069788;28;20021;-48
2021/07/10 03:23:14;;;;;;;35.22;32.97;;;;;;;16.56;68.84;93687.84;5069508;28;20415;-49
2021/07/10 03:25:41;;;;;;;33.92;32.13;;;;;;;16.75;68.35;93673.22;5069537;28;20104;-52
2021/07/10 03:28:07;;;;;;;31.00;29.15;;;;;;;16.77;68.92;93676.16;5069518;28;20025;-48
2021/07/10 03:30:33;;;;;;;32.65;30.52;;;;;;;16.80;68.84;93683.38;5069098;28;20031;-49
2021/07/10 03:32:59;;;;;;;32.47;30.83;;;;;;;16.84;69.28;93672.50;5069749;28;20032;-50
2021/07/10 03:35:24;;;;;;;33.22;31.23;;;;;;;16.89;69.22;93672.22;5069403;28;20031;-51
2021/07/10 03:37:50;;;;;;;33.42;31.50;;;;;;;17.04;68.54;93680.34;5069455;28;20121;-57
2021/07/10 03:40:19;;;;;;;40.60;32.47;;;;;;;17.10;68.59;93674.44;5069377;28;20490;-56
2021/07/10 03:42:44;;;;;;;40.08;30.60;;;;;;;17.09;68.18;93670.19;5069399;28;20028;-56
2021/07/10 03:45:12;;;;;;;31.85;29.83;;;;;;;17.01;68.75;93666.81;5069514;28;20468;-55
2021/07/10 03:47:38;;;;;;;29.98;27.88;;;;;;;16.87;68.81;93655.31;5069633;28;20033;-56
2021/07/10 03:50:05;;;;;;;28.52;26.95;;;;;;;16.91;68.87;93671.66;5069694;28;20509;-56
2021/07/10 03:52:31;;;;;;;28.23;25.92;;;;;;;16.78;69.71;93669.28;5069319;28;20035;-50
2021/07/10 03:54:56;;;;;;;44.45;28.98;;;;;;;16.81;70.20;93660.47;5069735;28;20033;-55
2021/07/10 03:57:22;;;;;;;31.55;28.67;;;;;;;16.73;70.56;93656.34;5069399;28;20524;-57
2021/07/10 03:59:47;;;;;;;30.95;28.63;;;;;;;16.81;70.41;93662.50;5069552;28;20040;-56
2021/07/10 04:02:14;;;;;;;33.17;30.77;;;;;;;16.85;69.99;93657.25;5069079;28;20067;-56
2021/07/10 04:04:39;;;;;;;36.03;34.15;;;;;;;16.98;69.63;93654.75;5069058;28;20044;-58
2021/07/10 04:07:05;;;;;;;37.97;35.58;;;;;;;17.00;69.59;93649.31;5069504;28;20028;-59
2021/07/10 04:09:30;;;;;;;49.55;33.60;;;;;;;17.00;69.41;93649.31;5069506;28;20390;-60
2021/07/10 04:11:56;;;;;;;35.40;32.42;;;;;;;16.96;69.76;93645.50;5069356;28;20425;-52
2021/07/10 04:14:22;;;;;;;35.20;32.80;;;;;;;17.01;69.69;93639.66;5069342;28;20020;-55
2021/07/10 04:16:48;;;;;;;34.50;32.58;;;;;;;16.99;69.82;93645.09;5069376;28;20027;-54
2021/07/10 04:19:13;;;;;;;36.20;34.28;;;;;;;17.13;69.49;93640.53;5068652;28;20478;-55
2021/07/10 04:21:39;;;;;;;35.65;33.65;;;;;;;17.08;70.22;93644.34;5068983;28;20039;-56
2021/07/10 04:24:04;;;;;;;34.95;32.53;;;;;;;17.12;69.54;93635.53;5068941;28;20044;-56
2021/07/10 04:26:30;;;;;;;34.25;31.90;;;;;;;17.21;69.87;93635.53;5069159;28;20027;-56
2021/07/10 04:28:55;;;;;;;35.30;33.28;;;;;;;17.23;69.74;93630.13;5069038;28;20121;-56
2021/07/10 04:31:21;;;;;;;36.22;34.03;;;;;;;17.26;69.93;93628.91;5068918;28;20016;-57
2021/07/10 04:33:46;;;;;;;37.28;35.22;;;;;;;17.27;69.74;93635.97;5068709;28;20027;-53
2021/07/10 04:36:11;;;;;;;39.92;37.53;;;;;;;17.24;70.02;93639.19;5068837;28;20129;-56
2021/07/10 04:38:38;;;;;;;36.05;33.95;;;;;;;17.27;70.70;93630.41;5069317;28;20040;-55
2021/07/10 04:41:05;;;;;;;36.65;34.55;;;;;;;17.38;70.36;93637.44;5068216;28;20482;-55
2021/07/10 04:43:31;;;;;;;38.40;35.95;;;;;;;17.43;70.73;93631.53;5070886;28;20029;-55
2021/07/10 04:45:57;;;;;;;36.22;34.08;;;;;;;17.43;71.09;93633.63;5072222;28;20024;-55
2021/07/10 04:48:22;;;;;;;40.17;37.40;;;;;;;17.54;70.95;93633.06;5072413;28;20115;-55
2021/07/10 04:50:48;;;;;;;40.80;38.05;;;;;;;17.62;70.98;93632.88;5069768;28;20070;-58
2021/07/10 04:53:13;;;;;;;40.58;38.20;;;;;;;17.64;70.99;93630.97;5072517;28;20012;-57
2021/07/10 04:55:39;;;;;;;76.10;70.15;;;;;;;17.73;70.67;93630.22;5072544;28;20306;-57
2021/07/10 04:58:04;;;;;;;56.97;50.83;;;;;;;17.86;70.40;93631.78;5071987;28;20027;-57
2021/07/10 05:00:29;;;;;;;49.97;47.35;;;;;;;17.92;70.26;93635.00;5071520;28;20098;-58
2021/07/10 05:02:55;;;;;;;54.05;51.28;;;;;;;17.91;69.41;93627.97;5072164;28;20032;-59
2021/07/10 05:05:20;;;;;;;52.42;49.67;;;;;;;18.03;69.99;93628.78;5072094;28;20031;-58
2021/07/10 05:07:46;;;;;;;51.97;49.40;;;;;;;18.02;69.58;93627.31;5071564;28;20032;-60
2021/07/10 05:10:12;;;;;;;57.75;54.90;;;;;;;18.14;69.32;93636.56;5071513;28;20013;-59
2021/07/10 05:12:37;;;;;;;55.83;52.78;;;;;;;18.20;69.65;93636.97;5071960;28;20021;-59
2021/07/10 05:15:03;;;;;;;60.15;57.25;;;;;;;18.32;70.04;93637.06;5071756;28;20094;-55
2021/07/10 05:17:29;;;;;;;71.85;68.03;;;;;;;18.39;69.52;93642.47;5069179;28;20017;-53
2021/07/10 05:19:54;;;;;;;165.40;150.45;;;;;;;18.49;70.13;93646.00;5071875;28;20021;-57
2021/07/10 05:22:20;;;;;;;75.90;72.18;;;;;;;18.58;69.41;93648.00;5071802;28;20032;-57
2021/07/10 05:24:45;;;;;;;71.97;68.50;;;;;;;18.64;69.46;93650.47;5071721;28;20401;-57
2021/07/10 05:27:10;;;;;;;80.30;76.55;;;;;;;18.65;69.66;93651.94;5071992;28;20086;-57
2021/07/10 05:29:36;;;;;;;82.50;78.55;;;;;;;18.78;70.18;93659.81;5071656;28;20504;-56
2021/07/10 05:32:03;;;;;;;79.40;75.60;;;;;;;18.92;69.79;93657.97;5071713;28;20021;-56
2021/07/10 05:34:28;;;;;;;70.05;66.50;;;;;;;18.93;68.62;93659.41;5071916;28;20444;-56
2021/07/10 05:36:54;;;;;;;138.00;130.73;;;;;;;18.96;69.19;93651.88;5071696;28;20020;-56
2021/07/10 05:39:19;;;;;;;74.65;70.85;;;;;;;19.01;68.71;93653.63;5071410;28;20052;-57
2021/07/10 05:41:45;;;;;;;79.22;74.35;;;;;;;19.06;67.55;93656.09;5071097;28;20025;-57
2021/07/10 05:44:10;;;;;;;82.18;78.00;;;;;;;19.12;68.02;93653.72;5071666;28;20417;-56
2021/07/10 05:46:36;;;;;;;91.57;87.22;;;;;;;19.23;68.10;93647.41;5071216;28;20106;-57
2021/07/10 05:49:02;;;;;;;85.05;80.65;;;;;;;19.32;68.93;93646.59;5071424;28;20044;-57
2021/07/10 05:51:27;;;;;;;100.53;94.63;;;;;;;19.41;69.10;93645.09;5071404;28;20016;-57
2021/07/10 05:53:53;;;;;;;89.38;85.10;;;;;;;19.52;68.95;93645.16;5070623;28;20035;-57
2021/07/10 05:56:18;;;;;;;98.80;94.30;;;;;;;19.61;67.69;93652.00;5071076;28;20025;-57
2021/07/10 05:58:44;;;;;;;86.15;81.93;;;;;;;19.61;66.76;93652.72;5071392;28;20107;-56
2021/07/10 06:01:09;;;;;;;99.72;94.40;;;;;;;19.62;66.13;93642.97;5070963;28;20581;-57
2021/07/10 06:03:35;;;;;;;94.25;89.57;;;;;;;19.70;66.88;93648.38;5071118;28;20024;-57
2021/07/10 06:06:00;;;;;;;63.78;60.78;;;;;;;19.86;65.66;93649.38;5071336;28;20036;-56
2021/07/10 06:08:26;;;;;;;86.93;82.35;;;;;;;19.93;65.68;93647.69;5071207;28;20070;-56
2021/07/10 06:10:51;;;;;;;82.68;78.60;;;;;;;20.00;66.05;93649.53;5071249;28;20020;-56
2021/07/10 06:13:17;;;;;;;81.85;77.45;;;;;;;20.10;67.11;93642.50;5070779;28;20151;-56
2021/07/10 06:15:42;;;;;;;64.43;60.92;;;;;;;20.11;66.56;93646.78;5071077;28;20032;-54
2021/07/10 06:18:08;;;;;;;54.28;51.47;;;;;;;20.10;64.78;93639.69;5071004;28;20508;-56
2021/07/10 06:20:36;;;;;;;66.85;62.58;;;;;;;20.26;64.33;93640.72;5070617;28;20107;-57
2021/07/10 06:23:05;;;;;;;64.25;59.50;;;;;;;20.30;65.45;93645.84;5070884;28;20046;-57
2021/07/10 06:25:30;;;;;;;60.60;56.45;;;;;;;20.31;65.92;93647.31;5070890;28;20509;-58
2021/07/10 06:27:56;;;;;;;81.60;76.05;;;;;;;20.47;66.33;93641.94;5070864;28;20021;-58
2021/07/10 06:30:21;;;;;;;113.80;80.75;;;;;;;20.53;66.59;93643.03;5070451;28;20017;-57
2021/07/10 06:32:47;;;;;;;52.90;49.75;;;;;;;20.62;65.12;93639.38;5070835;28;20024;-56
2021/07/10 06:35:13;;;;;;;52.92;50.20;;;;;;;20.74;64.34;93642.91;5070596;28;20036;-56
2021/07/10 06:37:39;;;;;;;55.58;52.78;;;;;;;20.81;64.97;93641.19;5070696;28;20032;-56
2021/07/10 06:40:06;;;;;;;59.05;56.00;;;;;;;20.93;64.41;93637.03;5070583;28;20457;-58
2021/07/10 06:42:31;;;;;;;58.97;56.10;;;;;;;20.98;63.86;93638.75;5068885;28;20032;-58
2021/07/10 06:44:57;;;;;;;53.75;50.88;;;;;;;21.08;64.26;93638.59;5070775;28;20039;-58
2021/07/10 06:47:22;;;;;;;45.30;42.70;;;;;;;21.21;63.37;93640.78;5070141;28;20101;-59
2021/07/10 06:49:47;;;;;;;43.90;41.53;;;;;;;;;;5070172;28;20025;-57
2021/07/10 06:52:13;;;;;;;41.47;39.47;;;;;;;21.42;63.82;93640.56;5069729;28;20028;-57
2021/07/10 06:54:38;;;;;;;46.83;44.38;;;;;;;21.45;62.53;93639.34;5050360;28;21000;-57
2021/07/10 06:57:05;;;;;;;41.47;39.47;;;;;;;21.53;64.26;93639.06;5050232;28;20024;-54
2021/07/10 06:59:31;;;;;;;44.83;41.97;;;;;;;21.63;64.05;93636.84;5050182;28;20036;-54
2021/07/10 07:01:56;;;;;;;38.50;35.90;;;;;;;21.83;62.49;93632.34;5049727;28;20525;-56
2021/07/10 07:04:22;;;;;;;54.47;37.13;;;;;;;21.87;61.71;93626.97;5049741;28;20032;-57
2021/07/10 07:06:47;;;;;;;39.03;36.45;;;;;;;21.94;61.63;93631.56;5049189;28;20033;-56
2021/07/10 07:09:13;;;;;;;35.70;33.83;;;;;;;22.05;61.17;93630.78;5049768;28;20032;-58
2021/07/10 07:11:38;;;;;;;37.53;35.20;;;;;;;22.21;61.35;93620.41;5049781;28;20032;-57
2021/07/10 07:14:05;;;;;;;37.95;35.75;;;;;;;22.24;60.76;93630.41;5049985;28;20032;-57
2021/07/10 07:16:31;;;;;;;26.70;25.10;;;;;;;22.51;59.29;93633.28;5049686;28;20039;-59
2021/07/10 07:18:56;;;;;;;36.45;31.52;;;;;;;22.60;60.72;93629.56;5067450;28;20111;-57
2021/07/10 07:21:22;;;;;;;16.40;15.50;;;;;;;22.79;57.70;93636.84;5069207;28;20489;-56
2021/07/10 07:23:47;;;;;;;21.58;20.42;;;;;;;22.85;57.97;93633.63;5069227;28;20482;-57
2021/07/10 07:26:13;;;;;;;45.63;23.33;;;;;;;22.99;57.87;93635.09;5069418;28;20147;-57
2021/07/10 07:28:38;;;;;;;22.63;20.92;;;;;;;23.09;56.25;93635.59;5069864;28;20028;-58
2021/07/10 07:31:05;;;;;;;38.00;18.88;;;;;;;23.20;55.73;93629.13;5069409;28;20051;-52
2021/07/10 07:33:30;;;;;;;20.40;19.10;;;;;;;23.38;56.28;93637.78;5068601;28;20040;-54
2021/07/10 07:35:56;;;;;;;14.52;13.45;;;;;;;23.52;55.25;93634.94;5069695;28;20028;-54
2021/07/10 07:38:22;;;;;;;13.93;13.02;;;;;;;23.71;52.26;93631.63;5069291;28;20059;-56
2021/07/10 07:40:48;;;;;;;16.30;15.23;;;;;;;23.88;52.93;93636.69;5069725;28;20102;-56
2021/07/10 07:43:13;;;;;;;13.73;12.82;;;;;;;24.12;53.82;93631.47;5069363;28;20493;-58
2021/07/10 07:45:39;;;;;;;12.68;11.77;;;;;;;24.34;53.66;93636.06;5069510;28;20013;-56
2021/07/10 07:48:05;;;;;;;12.20;11.30;;;;;;;24.52;52.63;93628.41;5069341;28;20032;-56
2021/07/10 07:50:30;;;;;;;12.07;10.95;;;;;;;24.71;52.78;93625.03;5069323;28;20027;-50
2021/07/10 07:52:55;;;;;;;11.43;10.52;;;;;;;24.85;50.00;93630.63;5069394;28;20040;-56
2021/07/10 07:55:21;;;;;;;13.10;11.95;;;;;;;24.88;51.48;93606.03;5069426;28;20029;-52
2021/07/10 07:57:47;;;;;;;13.27;11.75;;;;;;;25.43;54.10;93626.78;5068854;28;20020;-55
2021/07/10 08:00:19;;;;;;;9.80;8.82;;;;;;;25.80;47.47;93624.06;5069502;28;20035;-58
2021/07/10 08:02:44;;;;;;;9.23;8.35;;;;;;;25.90;47.21;93620.94;5069236;28;20029;-55
2021/07/10 08:05:10;;;;;;;8.48;7.78;;;;;;;25.87;47.17;93619.38;5069447;28;20075;-58
2021/07/10 08:07:36;;;;;;;15.48;14.02;;;;;;;26.12;49.82;93622.53;5069417;28;20472;-57
2021/07/10 08:10:02;;;;;;;9.50;8.80;;;;;;;26.31;48.34;93621.16;5070244;28;20076;-53
2021/07/10 08:12:28;;;;;;;10.30;9.38;;;;;;;26.45;46.42;93613.19;5069602;28;20188;-56
2021/07/10 08:14:53;;;;;;;10.43;8.55;;;;;;;26.78;47.36;93610.22;5069489;28;20032;-57
2021/07/10 08:17:19;;;;;;;7.35;6.70;;;;;;;27.03;45.23;93604.03;5071708;28;20059;-57
2021/07/10 08:19:44;;;;;;;30.35;8.32;;;;;;;27.43;44.16;93609.66;5073022;28;20026;-56
2021/07/10 08:22:10;;;;;;;8.13;7.60;;;;;;;27.57;41.05;93608.03;5073397;28;20037;-56
2021/07/10 08:24:35;;;;;;;7.72;7.00;;;;;;;27.47;44.69;93606.97;5072927;28;20421;-57
2021/07/10 08:27:01;;;;;;;7.57;6.88;;;;;;;27.37;40.27;93596.03;5073269;28;20108;-56
2021/07/10 08:29:26;;;;;;;13.82;7.72;;;;;;;27.54;41.59;93606.53;5072474;28;20025;-57
2021/07/10 08:31:51;;;;;;;33.53;30.85;;;;;;;27.42;41.42;93611.03;5072585;28;20028;-59
2021/07/10 08:34:17;;;;;;;8.50;6.38;;;;;;;27.01;39.63;93606.78;5072704;28;20116;-57
2021/07/10 08:36:42;;;;;;;8.48;6.63;;;;;;;26.76;40.32;93610.13;5072010;28;20032;-56
2021/07/10 08:39:08;;;;;;;24.40;8.13;;;;;;;27.05;39.79;93601.25;5071476;28;20500;-57
2021/07/10 08:41:35;;;;;;;7.32;6.63;;;;;;;27.76;37.94;93609.38;5071074;28;20016;-57
2021/07/10 08:44:00;;;;;;;5.93;5.60;;;;;;;27.87;37.89;93605.47;5071746;28;20032;-57
2021/07/10 08:46:25;;;;;;;13.70;6.80;;;;;;;28.31;38.62;93617.50;5071317;28;20505;-55
2021/07/10 08:48:51;;;;;;;5.28;4.82;;;;;;;28.84;36.17;93609.19;5071831;28;20440;-58
2021/07/10 08:51:17;;;;;;;5.03;4.72;;;;;;;28.99;34.77;93611.03;5071280;28;20068;-58
2021/07/10 08:53:43;;;;;;;6.05;4.85;;;;;;;29.21;34.17;93614.53;5071701;28;20024;-57
2021/07/10 08:56:09;;;;;;;5.03;4.72;;;;;;;29.02;34.38;93615.38;5071380;28;20016;-58
2021/07/10 08:58:35;;;;;;;6.00;5.50;;;;;;;29.48;34.59;93615.22;5070954;28;20664;-58
2021/07/10 09:01:01;;;;;;;5.20;4.70;;;;;;;29.90;32.74;93614.22;5069485;28;20041;-54
2021/07/10 09:03:27;;;;;;;3.75;3.45;;;;;;;30.10;31.40;93610.41;5070824;28;20077;-54
2021/07/10 09:05:53;;;;;;;6.28;4.43;;;;;;;30.47;32.59;93612.72;5070880;28;20024;-58
2021/07/10 09:08:25;;;;;;;5.53;3.72;;;;;;;30.58;29.93;93605.84;5071188;28;20100;-57
2021/07/10 09:11:06;;;;;;;7.70;3.47;;;;;;;30.86;30.83;93614.28;5068408;28;20055;-57
2021/07/10 09:13:38;;;;;;;5.88;4.45;;;;;;;31.17;30.29;93607.78;5067976;28;20031;-55
2021/07/10 09:16:10;;;;;;;4.20;3.80;;;;;;;30.78;31.01;93611.25;5070905;28;20052;-56
2021/07/10 09:18:50;;;;;;;5.60;4.10;;;;;;;30.84;30.94;93620.66;5069262;28;20028;-58
2021/07/10 09:21:37;;;;;;;7.32;4.20;;;;;;;31.16;30.18;93609.22;5068810;28;20052;-58
2021/07/10 09:24:05;;;;;;;4.20;3.80;;;;;;;30.98;29.62;93615.28;5069498;28;20039;-53
2021/07/10 09:26:31;;;;;;;8.30;4.65;;;;;;;30.51;30.47;93609.97;5070182;28;20413;-53
2021/07/10 09:29:01;;;;;;;6.93;3.75;;;;;;;30.31;30.15;93612.34;5069128;28;20067;-50
2021/07/10 09:31:29;;;;;;;6.00;3.72;;;;;;;30.28;32.66;93608.69;5069087;28;20460;-58
2021/07/10 09:34:26;;;;;;;6.05;4.07;;;;;;;30.42;33.05;93602.63;5070164;28;20409;-57
2021/07/10 09:37:00;;;;;;;4.30;4.00;;;;;;;30.59;29.46;93599.47;5065625;28;20039;-58
2021/07/10 09:39:31;;;;;;;5.43;3.63;;;;;;;30.54;30.28;93602.88;5068573;28;20418;-58
2021/07/10 09:41:58;;;;;;;6.55;3.58;;;;;;;30.56;30.18;93594.38;5067695;28;20051;-59
2021/07/10 09:44:25;;;;;;;4.55;4.15;;;;;;;30.64;30.14;93597.44;5069862;28;20043;-56
2021/07/10 09:46:50;;;;;;;4.18;3.75;;;;;;;30.02;31.32;93610.22;5057865;28;20517;-52
2021/07/10 09:49:27;;;;;;;6.65;4.13;;;;;;;30.52;31.63;93611.41;5069585;28;20051;-52
2021/07/10 09:51:59;;;;;;;6.90;4.40;;;;;;;31.05;28.72;93604.72;5069512;28;20559;-60
2021/07/10 09:54:30;;;;;;;4.80;3.63;;;;;;;31.50;27.99;93600.59;5067822;28;20056;-58
2021/07/10 09:57:01;;;;;;;4.63;3.58;;;;;;;30.81;31.11;93599.22;5068435;28;20028;-56
2021/07/10 09:59:27;;;;;;;5.53;3.80;;;;;;;30.55;28.21;93607.94;5069278;28;20048;-58
2021/07/10 10:01:53;;;;;;;4.55;4.13;;;;;;;31.10;28.94;93601.25;5069469;28;20135;-60
2021/07/10 10:04:37;;;;;;;5.68;4.05;;;;;;;31.43;31.05;93599.75;5068988;28;20036;-58
2021/07/10 10:07:09;;;;;;;4.38;4.03;;;;;;;31.95;29.17;93600.00;5048414;28;20029;-59
2021/07/10 10:09:34;;;;;;;5.22;4.00;;;;;;;31.90;26.81;93596.31;5050234;28;20029;-56
2021/07/10 10:12:11;;;;;;;4.10;3.90;;;;;;;31.58;27.56;93603.63;5050062;28;20039;-55
2021/07/10 10:14:51;;;;;;;4.53;4.22;;;;;;;31.90;27.63;93604.88;5049084;28;20033;-58
2021/07/10 10:17:20;;;;;;;5.00;3.85;;;;;;;31.90;27.48;93602.03;5050366;28;20465;-58
2021/07/10 10:19:45;;;;;;;4.45;4.15;;;;;;;31.42;26.67;93606.91;5055237;28;20033;-56
2021/07/10 10:22:13;;;;;;;4.30;4.00;;;;;;;30.12;28.51;93587.66;5070341;28;20031;-57
2021/07/10 10:24:42;;;;;;;4.90;4.20;;;;;;;30.59;28.93;93601.59;5069969;28;20032;-57
2021/07/10 10:27:08;;;;;;;4.70;4.30;;;;;;;30.97;28.24;93608.13;5070024;28;20054;-58
2021/07/10 10:29:35;;;;;;;4.53;3.92;;;;;;;31.37;28.33;93596.78;5070109;28;20032;-58
2021/07/10 10:32:02;;;;;;;5.13;4.68;;;;;;;31.58;26.60;93570.06;5070029;28;20509;-60
2021/07/10 10:34:27;;;;;;;7.32;4.20;;;;;;;31.91;26.43;93583.50;5069520;28;20032;-59
2021/07/10 10:36:54;;;;;;;4.88;4.03;;;;;;;31.90;26.95;93590.59;5070194;28;20038;-58
2021/07/10 10:39:22;;;;;;;9.32;4.35;;;;;;;32.16;27.01;93584.63;5070181;28;20041;-57
2021/07/10 10:41:49;;;;;;;4.43;4.13;;;;;;;32.01;24.76;93577.97;5069835;28;20115;-58
2021/07/10 10:44:16;;;;;;;4.30;4.00;;;;;;;31.98;25.29;93581.50;5070606;28;20039;-58
2021/07/10 10:46:56;;;;;;;19.05;4.22;;;;;;;32.07;26.21;93574.50;5069584;28;20104;-59
2021/07/10 10:49:35;;;;;;;3.80;3.50;;;;;;;31.65;25.01;93574.47;5050550;28;20480;-58
2021/07/10 10:52:41;;;;;;;6.10;3.85;;;;;;;31.82;30.01;93581.91;5050298;28;20561;-54
2021/07/10 10:55:30;;;;;;;5.47;3.92;;;;;;;31.70;27.25;93589.56;5055886;28;20039;-56
2021/07/10 10:58:14;;;;;;;3.85;3.55;;;;;;;31.83;26.90;93577.66;5050569;28;20021;-56
2021/07/10 11:00:40;;;;;;;4.72;3.95;;;;;;;32.17;27.71;93563.94;5052245;28;20040;-58
2021/07/10 11:03:10;;;;;;;6.05;4.38;;;;;;;32.08;25.77;93570.94;5070088;28;20035;-56
2021/07/10 11:05:38;;;;;;;5.20;3.35;;;;;;;31.84;25.83;93567.66;5068936;28;20107;-56
2021/07/10 11:08:19;;;;;;;4.45;3.90;;;;;;;32.09;27.52;93557.38;5067570;28;20070;-57
2021/07/10 11:10:54;;;;;;;6.43;3.65;;;;;;;31.73;26.35;93551.06;5067609;28;20084;-57
2021/07/10 11:13:28;;;;;;;4.68;4.28;;;;;;;31.85;26.31;93563.41;5067962;28;20032;-57
2021/07/10 11:16:07;;;;;;;5.70;3.97;;;;;;;32.17;26.18;93568.94;5067912;28;20075;-56
2021/07/10 11:18:47;;;;;;;;;;;;;;;32.32;26.56;93567.00;5067774;28;20556;-56
2021/07/10 11:21:12;;;;;;;3.13;2.95;;;;;;;32.32;26.56;93555.56;5067476;28;19917;-57